createdAt,value
2019-06-20T00:02:28.286Z,17.50
2019-06-20T00:04:56.768Z,17.60
2019-06-20T00:07:25.313Z,17.70
2019-06-20T00:09:53.757Z,17.80
2019-06-20T00:12:22.223Z,17.80
2019-06-20T00:14:50.639Z,17.80
2019-06-20T00:17:19.099Z,17.90
2019-06-20T00:19:47.874Z,17.90
2019-06-20T00:22:16.356Z,17.90
2019-06-20T00:24:44.818Z,17.90
2019-06-20T00:27:13.269Z,17.90
2019-06-20T00:29:41.705Z,17.90
2019-06-20T00:32:10.161Z,17.90
2019-06-20T00:34:38.591Z,17.90
2019-06-20T00:37:07.034Z,17.90
2019-06-20T00:39:35.481Z,18.00
2019-06-20T00:42:03.943Z,18.00
2019-06-20T00:44:32.772Z,18.00
2019-06-20T00:47:01.259Z,18.00
2019-06-20T00:49:29.724Z,18.00
2019-06-20T00:51:58.187Z,17.90
2019-06-20T00:54:26.645Z,17.90
2019-06-20T00:56:55.483Z,17.90
2019-06-20T00:59:23.915Z,17.80
2019-06-20T01:01:52.354Z,17.50
2019-06-20T01:04:20.821Z,17.50
2019-06-20T01:06:49.267Z,17.50
2019-06-20T01:09:18.069Z,17.60
2019-06-20T01:11:46.536Z,17.60
2019-06-20T01:14:14.976Z,17.60
2019-06-20T01:16:43.730Z,17.60
2019-06-20T01:19:12.172Z,17.60
2019-06-20T01:21:40.993Z,17.60
2019-06-20T01:24:09.458Z,17.60
2019-06-20T01:26:37.889Z,17.60
2019-06-20T01:29:06.338Z,17.70
2019-06-20T01:31:35.108Z,17.70
2019-06-20T01:34:03.894Z,17.80
2019-06-20T01:36:32.335Z,17.80
2019-06-20T01:39:00.767Z,17.70
2019-06-20T01:41:29.202Z,17.60
2019-06-20T01:43:57.631Z,17.50
2019-06-20T01:46:26.086Z,17.30
2019-06-20T01:48:54.536Z,17.20
2019-06-20T01:51:23.389Z,17.20
2019-06-20T01:53:51.810Z,17.20
2019-06-20T01:56:20.263Z,17.30
2019-06-20T01:58:48.710Z,17.40
2019-06-20T02:01:17.152Z,17.40
2019-06-20T02:03:45.586Z,17.40
2019-06-20T02:06:14.177Z,17.40
2019-06-20T02:08:42.696Z,17.40
2019-06-20T02:11:11.145Z,17.40
2019-06-20T02:13:39.591Z,17.40
2019-06-20T02:16:08.407Z,17.40
2019-06-20T02:18:37.915Z,17.40
2019-06-20T02:21:20.775Z,17.40
2019-06-20T02:23:49.252Z,17.30
2019-06-20T02:26:17.769Z,17.20
2019-06-20T02:28:46.207Z,17.00
2019-06-20T02:31:15.003Z,17.00
2019-06-20T02:33:43.470Z,17.00
2019-06-20T02:36:11.984Z,17.00
2019-06-20T02:38:40.443Z,17.00
2019-06-20T02:41:09.231Z,16.90
2019-06-20T02:43:37.718Z,16.90
2019-06-20T02:46:06.722Z,17.00
2019-06-20T02:48:35.227Z,17.00
2019-06-20T02:51:04.074Z,17.00
2019-06-20T02:53:32.545Z,17.00
2019-06-20T02:56:01.015Z,17.00
2019-06-20T02:58:29.454Z,17.00
2019-06-20T03:00:59.314Z,16.90
2019-06-20T03:04:25.590Z,16.80
2019-06-20T03:06:54.336Z,16.80
2019-06-20T03:09:22.757Z,16.90
2019-06-20T03:11:51.166Z,16.90
2019-06-20T03:14:19.577Z,16.90
2019-06-20T03:16:47.986Z,16.90
2019-06-20T03:19:16.476Z,16.90
2019-06-20T03:21:44.880Z,17.00
2019-06-20T03:24:13.302Z,17.00
2019-06-20T03:26:41.714Z,16.90
2019-06-20T03:29:10.187Z,16.80
2019-06-20T03:31:50.816Z,16.80
2019-06-20T03:34:19.229Z,16.80
2019-06-20T03:36:47.634Z,16.90
2019-06-20T03:39:16.061Z,16.90
2019-06-20T03:41:44.451Z,17.00
2019-06-20T03:44:12.861Z,17.00
2019-06-20T03:46:41.262Z,17.10
2019-06-20T03:49:09.672Z,17.10
2019-06-20T03:51:38.428Z,17.10
2019-06-20T03:54:06.915Z,17.10
2019-06-20T03:56:35.313Z,17.20
2019-06-20T03:59:03.727Z,17.20
2019-06-20T04:01:32.982Z,17.40
2019-06-20T04:04:01.393Z,17.50
2019-06-20T04:06:29.789Z,17.50
2019-06-20T04:08:58.210Z,17.40
2019-06-20T04:11:26.620Z,17.50
2019-06-20T04:13:55.025Z,17.60
2019-06-20T04:16:23.425Z,17.70
2019-06-20T04:18:51.837Z,17.80
2019-06-20T04:21:20.247Z,17.80
2019-06-20T04:23:48.654Z,17.80
2019-06-20T04:26:17.070Z,17.80
2019-06-20T04:28:45.478Z,17.70
2019-06-20T04:31:13.890Z,17.70
2019-06-20T04:33:42.293Z,17.70
2019-06-20T04:36:13.485Z,17.70
2019-06-20T04:38:41.898Z,17.80
2019-06-20T04:41:10.298Z,17.90
2019-06-20T04:43:38.717Z,18.00
2019-06-20T04:46:21.029Z,18.10
2019-06-20T04:48:49.490Z,18.20
2019-06-20T04:51:17.938Z,18.30
2019-06-20T04:53:46.362Z,18.40
2019-06-20T04:56:14.780Z,18.50
2019-06-20T04:58:43.464Z,18.50
2019-06-20T05:01:11.875Z,18.60
2019-06-20T05:03:40.298Z,18.60
2019-06-20T05:06:08.692Z,18.70
2019-06-20T05:08:37.099Z,18.90
2019-06-20T05:11:06.600Z,19.00
2019-06-20T05:13:35.013Z,19.10
2019-06-20T05:16:04.170Z,19.30
2019-06-20T05:18:32.838Z,19.40
2019-06-20T05:21:01.260Z,19.40
2019-06-20T05:23:29.662Z,19.20
2019-06-20T05:25:58.086Z,19.10
2019-06-20T05:28:26.489Z,19.10
2019-06-20T05:30:54.901Z,19.20
2019-06-20T05:33:23.310Z,19.20
2019-06-20T05:35:51.728Z,19.30
2019-06-20T05:38:20.150Z,19.50
2019-06-20T05:40:49.542Z,19.90
2019-06-20T05:43:17.982Z,20.30
2019-06-20T05:45:48.836Z,20.70
2019-06-20T05:48:16.841Z,20.90
2019-06-20T05:50:45.245Z,21.10
2019-06-20T05:53:13.654Z,21.10
2019-06-20T05:55:42.067Z,21.20
2019-06-20T05:58:10.480Z,21.40
2019-06-20T06:00:38.917Z,21.50
2019-06-20T06:03:07.469Z,21.70
2019-06-20T06:05:37.163Z,21.90
2019-06-20T06:08:05.780Z,22.00
2019-06-20T06:10:34.196Z,22.10
2019-06-20T06:13:03.079Z,22.00
2019-06-20T06:15:31.893Z,22.20
2019-06-20T06:18:00.314Z,22.30
2019-06-20T06:20:28.725Z,22.40
2019-06-20T06:22:57.130Z,22.40
2019-06-20T06:25:25.544Z,22.30
2019-06-20T06:27:54.016Z,22.10
2019-06-20T06:30:22.870Z,21.60
2019-06-20T06:32:51.274Z,21.30
2019-06-20T06:35:19.862Z,21.20
2019-06-20T06:37:48.269Z,20.80
2019-06-20T06:40:17.023Z,20.60
2019-06-20T06:42:45.417Z,20.50
2019-06-20T06:45:14.615Z,20.40
2019-06-20T06:47:43.022Z,20.30
2019-06-20T06:50:13.436Z,20.50
2019-06-20T06:52:42.250Z,20.60
2019-06-20T06:55:10.805Z,20.70
2019-06-20T06:57:39.215Z,20.80
2019-06-20T07:00:12.825Z,20.80
2019-06-20T07:06:21.892Z,21.10
2019-06-20T07:08:53.425Z,21.50
2019-06-20T07:15:20.319Z,21.90
2019-06-20T07:21:30.449Z,22.20
2019-06-20T07:23:58.857Z,22.40
2019-06-20T07:26:27.270Z,22.90
2019-06-20T07:28:56.005Z,23.20
2019-06-20T07:31:24.416Z,23.50
2019-06-20T07:33:53.191Z,23.50
2019-06-20T07:36:21.922Z,23.20
2019-06-20T07:38:50.657Z,23.40
2019-06-20T07:41:19.079Z,24.30
2019-06-20T07:43:47.481Z,24.70
2019-06-20T07:46:15.893Z,24.80
2019-06-20T07:48:44.304Z,25.30
2019-06-20T07:51:12.781Z,25.80
2019-06-20T07:53:41.537Z,25.90
2019-06-20T07:56:10.276Z,26.60
2019-06-20T07:58:38.963Z,26.40
2019-06-20T08:01:07.385Z,26.60
2019-06-20T08:03:35.853Z,25.80
2019-06-20T08:06:04.348Z,25.30
2019-06-20T08:08:32.785Z,25.50
2019-06-20T08:11:01.478Z,25.90
2019-06-20T08:13:29.947Z,26.30
2019-06-20T08:15:58.360Z,26.60
2019-06-20T08:18:26.784Z,27.70
2019-06-20T08:20:55.180Z,27.20
2019-06-20T08:23:23.600Z,25.40
2019-06-20T08:25:51.990Z,25.00
2019-06-20T08:28:20.407Z,25.40
2019-06-20T08:30:48.870Z,25.90
2019-06-20T08:33:17.715Z,26.00
2019-06-20T08:35:46.501Z,26.00
2019-06-20T08:38:15.270Z,26.40
2019-06-20T08:40:43.751Z,26.70
2019-06-20T08:43:12.535Z,25.50
2019-06-20T08:45:43.004Z,24.80
2019-06-20T08:48:12.774Z,24.50
2019-06-20T08:50:42.237Z,24.60
2019-06-20T08:53:10.743Z,24.70
2019-06-20T08:55:39.743Z,25.80
2019-06-20T08:58:08.264Z,26.30
2019-06-20T09:00:38.247Z,26.70
2019-06-20T09:03:07.697Z,27.30
2019-06-20T09:05:48.315Z,27.70
2019-06-20T09:08:17.111Z,27.70
2019-06-20T09:10:45.519Z,27.80
2019-06-20T09:13:13.987Z,27.90
2019-06-20T09:15:43.050Z,27.80
2019-06-20T09:18:12.547Z,27.60
2019-06-20T09:20:41.120Z,27.30
2019-06-20T09:23:09.550Z,28.20
2019-06-20T09:25:38.426Z,28.70
2019-06-20T09:28:08.024Z,27.80
2019-06-20T09:30:37.207Z,28.10
2019-06-20T09:33:06.088Z,28.10
2019-06-20T09:35:34.866Z,29.10
2019-06-20T09:38:03.538Z,29.70
2019-06-20T09:40:32.453Z,28.50
2019-06-20T09:43:00.923Z,27.90
2019-06-20T09:45:29.428Z,27.40
2019-06-20T09:47:58.264Z,26.70
2019-06-20T09:50:27.435Z,25.90
2019-06-20T09:52:59.624Z,25.30
2019-06-20T09:55:29.311Z,25.50
2019-06-20T09:57:58.292Z,25.70
2019-06-20T10:00:29.421Z,26.60
2019-06-20T10:02:58.026Z,26.80
2019-06-20T10:05:26.927Z,26.90
2019-06-20T10:07:56.769Z,26.90
2019-06-20T10:10:30.144Z,26.20
2019-06-20T10:12:58.675Z,25.80
2019-06-20T10:15:32.780Z,25.60
2019-06-20T10:18:01.331Z,26.30
2019-06-20T10:20:29.839Z,27.60
2019-06-20T10:22:58.373Z,28.90
2019-06-20T10:25:26.816Z,29.50
2019-06-20T10:27:55.332Z,29.80
2019-06-20T10:30:25.800Z,31.80
2019-06-20T10:32:54.296Z,30.80
2019-06-20T10:35:23.168Z,28.80
2019-06-20T10:37:53.008Z,27.80
2019-06-20T10:40:23.705Z,27.80
2019-06-20T10:42:53.012Z,27.00
2019-06-20T10:45:24.258Z,27.10
2019-06-20T10:47:53.876Z,27.80
2019-06-20T10:50:23.583Z,27.60
2019-06-20T10:52:52.716Z,26.80
2019-06-20T10:55:21.834Z,26.00
2019-06-20T10:57:51.697Z,25.70
2019-06-20T11:00:30.981Z,26.40
2019-06-20T11:02:54.228Z,26.40
2019-06-20T11:05:23.601Z,26.50
2019-06-20T11:07:52.077Z,26.30
2019-06-20T11:10:21.383Z,26.10
2019-06-20T11:12:55.281Z,26.10
2019-06-20T11:15:21.521Z,26.00
2019-06-20T11:17:49.974Z,25.60
2019-06-20T11:20:22.355Z,26.30
2019-06-20T11:22:50.815Z,27.70
2019-06-20T11:25:19.778Z,27.70
2019-06-20T11:27:48.222Z,27.80
2019-06-20T11:30:25.066Z,27.60
2019-06-20T11:32:53.502Z,28.20
2019-06-20T11:35:22.422Z,27.70
2019-06-20T11:37:50.871Z,27.60
2019-06-20T11:40:21.049Z,27.40
2019-06-20T11:42:52.771Z,27.50
2019-06-20T11:45:21.957Z,27.30
2019-06-20T11:47:50.442Z,27.40
2019-06-20T11:50:19.498Z,26.70
2019-06-20T11:52:48.353Z,26.10
2019-06-20T11:55:16.956Z,26.00
2019-06-20T11:57:45.392Z,25.80
2019-06-20T12:00:15.549Z,25.60
2019-06-20T12:02:44.461Z,25.30
2019-06-20T12:05:14.886Z,25.30
2019-06-20T12:07:45.338Z,25.40
2019-06-20T12:10:15.023Z,25.90
2019-06-20T12:12:44.747Z,25.40
2019-06-20T12:15:14.253Z,25.80
2019-06-20T12:17:43.304Z,26.00
2019-06-20T12:20:14.562Z,25.80
2019-06-20T12:22:43.587Z,25.70
2019-06-20T12:25:14.480Z,25.40
2019-06-20T12:27:43.220Z,25.30
2019-06-20T12:30:14.750Z,25.50
2019-06-20T12:32:44.609Z,25.40
2019-06-20T12:35:14.116Z,25.40
2019-06-20T12:37:42.894Z,25.50
2019-06-20T12:40:12.154Z,26.10
2019-06-20T12:42:43.038Z,26.20
2019-06-20T12:45:13.576Z,26.20
2019-06-20T12:47:42.080Z,25.90
2019-06-20T12:50:11.438Z,25.80
2019-06-20T12:52:41.338Z,25.90
2019-06-20T12:55:11.308Z,25.50
2019-06-20T12:57:40.461Z,25.10
2019-06-20T13:00:12.424Z,25.00
2019-06-20T13:02:42.036Z,25.30
2019-06-20T13:05:11.574Z,25.20
2019-06-20T13:07:40.739Z,25.00
2019-06-20T13:10:11.151Z,25.00
2019-06-20T13:12:40.825Z,24.90
2019-06-20T13:15:10.378Z,24.80
2019-06-20T13:17:39.958Z,24.90
2019-06-20T13:20:10.149Z,24.90
2019-06-20T13:22:39.578Z,24.80
2019-06-20T13:25:09.054Z,24.40
2019-06-20T13:27:39.042Z,24.50
2019-06-20T13:30:09.202Z,24.50
2019-06-20T13:32:38.414Z,24.40
2019-06-20T13:35:08.787Z,24.40
2019-06-20T13:37:38.450Z,24.70
2019-06-20T13:40:11.239Z,25.10
2019-06-20T13:42:41.980Z,25.60
2019-06-20T13:45:18.166Z,26.00
2019-06-20T13:47:47.811Z,25.90
2019-06-20T13:50:17.159Z,26.00
2019-06-20T13:52:47.217Z,26.20
2019-06-20T13:55:16.397Z,26.30
2019-06-20T13:57:45.713Z,26.30
2019-06-20T14:00:17.034Z,26.10
2019-06-20T14:02:46.962Z,26.10
2019-06-20T14:05:17.771Z,25.90
2019-06-20T14:07:48.376Z,25.50
2019-06-20T14:10:17.029Z,25.00
2019-06-20T14:12:46.874Z,25.00
2019-06-20T14:15:16.505Z,25.00
2019-06-20T14:17:45.064Z,25.00
2019-06-20T14:20:15.038Z,24.80
2019-06-20T14:22:44.848Z,25.00
2019-06-20T14:25:14.515Z,25.20
2019-06-20T14:27:43.933Z,24.80
2019-06-20T14:30:13.825Z,24.50
2019-06-20T14:32:43.169Z,24.20
2019-06-20T14:35:12.762Z,23.90
2019-06-20T14:37:43.407Z,23.80
2019-06-20T14:40:12.405Z,23.80
2019-06-20T14:42:40.989Z,23.90
2019-06-20T14:45:10.077Z,24.00
2019-06-20T14:47:38.594Z,24.10
2019-06-20T14:50:11.322Z,24.00
2019-06-20T14:52:39.879Z,24.10
2019-06-20T14:55:09.249Z,24.40
2019-06-20T14:57:37.693Z,24.70
2019-06-20T15:00:10.938Z,25.00
2019-06-20T15:02:39.365Z,25.00
2019-06-20T15:05:16.074Z,25.00
2019-06-20T15:07:47.093Z,25.60
2019-06-20T15:10:16.180Z,26.10
2019-06-20T15:12:46.091Z,26.30
2019-06-20T15:15:15.791Z,26.60
2019-06-20T15:17:46.499Z,26.40
2019-06-20T15:20:15.729Z,26.30
2019-06-20T15:22:46.779Z,26.30
2019-06-20T15:25:15.208Z,26.30
2019-06-20T15:27:43.856Z,26.40
2019-06-20T15:30:12.978Z,25.80
2019-06-20T15:32:55.279Z,25.60
2019-06-20T15:35:11.710Z,26.00
2019-06-20T15:37:40.155Z,26.30
2019-06-20T15:40:09.533Z,26.30
2019-06-20T15:42:38.066Z,26.30
2019-06-20T15:45:07.843Z,26.60
2019-06-20T15:47:36.354Z,26.70
2019-06-20T15:50:10.828Z,26.70
2019-06-20T15:52:48.505Z,26.70
2019-06-20T15:55:20.532Z,26.30
2019-06-20T15:57:49.368Z,26.30
2019-06-20T16:00:18.578Z,26.70
2019-06-20T16:02:47.087Z,27.00
2019-06-20T16:05:16.354Z,27.00
2019-06-20T16:07:45.066Z,26.80
2019-06-20T16:10:13.866Z,26.20
2019-06-20T16:12:42.425Z,26.00
2019-06-20T16:15:13.050Z,26.20
2019-06-20T16:17:47.449Z,26.30
2019-06-20T16:20:16.837Z,26.30
2019-06-20T16:22:45.360Z,26.70
2019-06-20T16:25:14.169Z,26.80
2019-06-20T16:27:42.598Z,26.80
2019-06-20T16:30:14.011Z,26.50
2019-06-20T16:32:42.533Z,26.20
2019-06-20T16:35:18.503Z,26.00
2019-06-20T16:37:46.958Z,26.40
2019-06-20T16:40:16.443Z,26.10
2019-06-20T16:42:45.276Z,26.30
2019-06-20T16:45:14.838Z,26.70
2019-06-20T16:47:43.367Z,26.80
2019-06-20T16:50:12.084Z,26.80
2019-06-20T16:52:40.848Z,26.80
2019-06-20T16:55:19.393Z,26.20
2019-06-20T16:57:47.834Z,26.20
2019-06-20T17:00:18.573Z,25.90
2019-06-20T17:02:47.259Z,25.50
2019-06-20T17:05:16.046Z,25.50
2019-06-20T17:07:44.520Z,25.10
2019-06-20T17:10:15.854Z,24.80
2019-06-20T17:12:44.308Z,24.70
2019-06-20T17:15:14.109Z,24.70
2019-06-20T17:17:42.561Z,24.50
2019-06-20T17:20:11.457Z,24.30
2019-06-20T17:22:41.713Z,24.20
2019-06-20T17:25:10.910Z,24.10
2019-06-20T17:27:39.333Z,23.90
2019-06-20T17:30:13.627Z,23.90
2019-06-20T17:32:42.412Z,24.10
2019-06-20T17:35:11.480Z,24.30
2019-06-20T17:37:39.990Z,24.60
2019-06-20T17:40:10.785Z,24.80
2019-06-20T17:42:39.222Z,25.30
2019-06-20T17:45:10.132Z,25.70
2019-06-20T17:47:38.953Z,25.50
2019-06-20T17:50:11.627Z,25.40
2019-06-20T17:52:40.154Z,25.10
2019-06-20T17:55:10.823Z,24.90
2019-06-20T17:57:40.303Z,24.90
2019-06-20T18:00:11.965Z,25.00
2019-06-20T18:02:40.401Z,25.00
2019-06-20T18:05:10.602Z,25.20
2019-06-20T18:07:39.099Z,24.90
2019-06-20T18:10:09.428Z,24.40
2019-06-20T18:12:38.144Z,24.00
2019-06-20T18:15:07.701Z,23.80
2019-06-20T18:17:36.136Z,23.80
2019-06-20T18:20:08.707Z,23.70
2019-06-20T18:22:37.132Z,23.70
2019-06-20T18:25:08.225Z,23.60
2019-06-20T18:27:36.645Z,23.70
2019-06-20T18:30:09.373Z,23.60
2019-06-20T18:32:38.280Z,23.40
2019-06-20T18:35:08.590Z,23.50
2019-06-20T18:37:37.501Z,23.40
2019-06-20T18:40:08.376Z,23.40
2019-06-20T18:42:37.103Z,23.40
2019-06-20T18:45:07.381Z,23.10
2019-06-20T18:47:35.826Z,23.00
2019-06-20T18:50:07.957Z,22.80
2019-06-20T18:52:51.016Z,22.60
2019-06-20T18:55:09.978Z,22.50
2019-06-20T18:57:38.741Z,22.40
2019-06-20T19:00:12.742Z,22.40
2019-06-20T19:02:41.530Z,22.40
2019-06-20T19:05:12.582Z,22.40
2019-06-20T19:07:41.043Z,22.30
2019-06-20T19:10:10.836Z,22.30
2019-06-20T19:12:39.337Z,22.30
2019-06-20T19:15:10.106Z,22.30
2019-06-20T19:17:38.604Z,22.30
2019-06-20T19:20:08.320Z,22.20
2019-06-20T19:22:37.163Z,22.10
2019-06-20T19:25:09.799Z,22.10
2019-06-20T19:27:46.338Z,22.00
2019-06-20T19:30:09.869Z,21.90
2019-06-20T19:32:38.342Z,21.80
2019-06-20T19:35:10.444Z,21.90
2019-06-20T19:37:39.196Z,21.90
2019-06-20T19:40:09.488Z,21.80
2019-06-20T19:42:38.321Z,21.70
2019-06-20T19:45:11.347Z,21.70
2019-06-20T19:47:40.547Z,21.60
2019-06-20T19:50:11.623Z,21.40
2019-06-20T19:52:40.736Z,21.30
2019-06-20T19:55:09.896Z,21.20
2019-06-20T19:57:38.439Z,21.10
2019-06-20T20:00:08.837Z,21.00
2019-06-20T20:02:37.627Z,20.90
2019-06-20T20:05:18.461Z,20.90
2019-06-20T20:07:38.984Z,20.90
2019-06-20T20:10:08.794Z,20.90
2019-06-20T20:12:37.581Z,20.80
2019-06-20T20:15:10.090Z,20.80
2019-06-20T20:17:38.544Z,20.70
2019-06-20T20:20:07.886Z,20.70
2019-06-20T20:22:36.425Z,20.70
2019-06-20T20:25:07.165Z,20.60
2019-06-20T20:27:35.925Z,20.50
2019-06-20T20:30:12.170Z,20.40
2019-06-20T20:32:40.606Z,20.40
2019-06-20T20:35:09.118Z,20.40
2019-06-20T20:37:37.625Z,20.30
2019-06-20T20:40:10.389Z,20.30
2019-06-20T20:42:41.589Z,20.30
2019-06-20T20:45:10.466Z,20.20
2019-06-20T20:47:38.934Z,20.10
2019-06-20T20:50:09.047Z,20.10
2019-06-20T20:52:37.563Z,20.10
2019-06-20T20:55:08.158Z,20.00
2019-06-20T20:57:37.161Z,20.00
2019-06-20T21:00:24.349Z,19.90
2019-06-20T21:02:53.530Z,19.90
2019-06-20T21:05:22.049Z,20.00
2019-06-20T21:07:50.565Z,20.00
2019-06-20T21:10:19.717Z,20.00
2019-06-20T21:12:48.237Z,19.90
2019-06-20T21:15:17.233Z,19.90
2019-06-20T21:17:46.076Z,19.90
2019-06-20T21:20:15.663Z,19.90
2019-06-20T21:22:44.120Z,19.90
2019-06-20T21:25:13.043Z,20.00
2019-06-20T21:27:42.605Z,20.00
2019-06-20T21:30:13.611Z,19.90
2019-06-20T21:32:42.498Z,19.80
2019-06-20T21:35:11.567Z,19.70
2019-06-20T21:37:40.019Z,19.60
2019-06-20T21:40:09.477Z,19.50
2019-06-20T21:42:38.039Z,19.40
2019-06-20T21:45:08.794Z,19.40
2019-06-20T21:47:37.534Z,19.40
2019-06-20T21:50:07.944Z,19.30
2019-06-20T21:52:37.185Z,19.30
2019-06-20T21:55:07.420Z,19.30
2019-06-20T21:57:36.197Z,19.30
2019-06-20T22:00:10.663Z,19.30
2019-06-20T22:02:39.825Z,19.20
2019-06-20T22:05:08.845Z,19.20
2019-06-20T22:07:37.674Z,19.20
2019-06-20T22:10:07.053Z,19.30
2019-06-20T22:12:35.872Z,19.30
2019-06-20T22:15:06.933Z,19.40
2019-06-20T22:17:35.699Z,19.40
2019-06-20T22:20:08.984Z,19.40
2019-06-20T22:22:37.434Z,19.40
2019-06-20T22:25:07.322Z,19.30
2019-06-20T22:27:36.282Z,19.20
2019-06-20T22:30:10.686Z,19.20
2019-06-20T22:32:39.486Z,19.10
2019-06-20T22:35:09.610Z,19.10
2019-06-20T22:37:38.397Z,19.00
2019-06-20T22:40:08.515Z,19.00
2019-06-20T22:42:36.993Z,19.00
2019-06-20T22:45:10.225Z,19.00
2019-06-20T22:47:38.715Z,19.10
2019-06-20T22:50:08.770Z,19.10
2019-06-20T22:52:37.209Z,19.10
2019-06-20T22:55:08.005Z,19.10
2019-06-20T22:57:36.541Z,19.20
2019-06-20T23:00:09.131Z,19.20
2019-06-20T23:02:37.632Z,19.20
2019-06-20T23:05:07.443Z,19.20
2019-06-20T23:07:36.214Z,19.20
2019-06-20T23:10:11.375Z,19.10
2019-06-20T23:12:40.055Z,19.10
2019-06-20T23:15:09.448Z,19.10
2019-06-20T23:17:37.894Z,19.00
2019-06-20T23:20:10.060Z,19.00
2019-06-20T23:22:38.518Z,19.00
2019-06-20T23:25:07.875Z,19.10
2019-06-20T23:27:36.311Z,19.00
2019-06-20T23:30:06.906Z,19.00
2019-06-20T23:32:35.347Z,19.10
2019-06-20T23:35:04.963Z,19.10
2019-06-20T23:37:33.443Z,19.10
2019-06-20T23:40:02.640Z,19.10
2019-06-20T23:42:31.076Z,19.00
2019-06-20T23:44:59.903Z,19.00
2019-06-20T23:47:28.347Z,19.00
2019-06-20T23:49:56.815Z,19.00
2019-06-20T23:52:27.033Z,18.90
2019-06-20T23:54:55.788Z,18.80
2019-06-20T23:57:24.226Z,18.80
2019-06-20T23:59:53.036Z,18.80
